createdAt,value
2022-10-05T04:51:22.514Z,0.857143
2022-10-05T04:52:22.549Z,0.857143
2022-10-05T04:53:22.606Z,0.857143
2022-10-05T04:54:22.623Z,1.71429
2022-10-05T04:55:22.657Z,2.5
2022-10-05T04:56:22.717Z,2.5
2022-10-05T04:57:22.726Z,3.35714
2022-10-05T04:58:22.756Z,3.35714
2022-10-05T04:59:22.791Z,4.21429
2022-10-05T05:00:22.824Z,5
2022-10-05T05:01:22.942Z,5.85714
2022-10-05T05:02:22.886Z,7.5
2022-10-05T05:03:22.979Z,9.21429
2022-10-05T05:04:22.952Z,10.8571
2022-10-05T05:05:22.988Z,12.5
2022-10-05T05:06:23.037Z,14.2143
2022-10-05T05:07:23.049Z,16.7143
2022-10-05T05:08:23.102Z,18.3571
2022-10-05T05:09:23.143Z,20
2022-10-05T05:10:23.160Z,21.7143
2022-10-05T05:11:24.695Z,24.2143
2022-10-05T05:12:23.239Z,25.8571
2022-10-05T05:13:23.300Z,29.2143
2022-10-05T05:14:23.310Z,31.7143
2022-10-05T05:15:23.350Z,35
2022-10-05T05:16:23.441Z,39.2143
2022-10-05T05:17:23.430Z,44.2143
2022-10-05T05:18:23.469Z,50
2022-10-05T05:19:23.524Z,56.7143
2022-10-05T05:20:23.561Z,63.3571
2022-10-05T05:21:23.580Z,70.8571
2022-10-05T05:22:23.611Z,77.5
2022-10-05T05:23:23.647Z,84.2143
2022-10-05T05:24:23.671Z,91.7143
2022-10-05T05:25:23.733Z,99.2143
2022-10-05T05:26:23.747Z,106.714
2022-10-05T05:27:23.774Z,112.5
2022-10-05T05:28:23.839Z,117.5
2022-10-05T05:29:23.842Z,120.857
2022-10-05T05:30:23.906Z,125
2022-10-05T05:31:24.018Z,130
2022-10-05T05:32:23.957Z,137.5
2022-10-05T05:33:23.971Z,144.214
2022-10-05T05:34:24.011Z,151.714
2022-10-05T05:35:24.061Z,160
2022-10-05T05:36:24.074Z,167.5
2022-10-05T05:37:24.104Z,180
2022-10-05T05:38:24.131Z,190
2022-10-05T05:39:24.169Z,197.5
2022-10-05T05:40:24.224Z,207.5
2022-10-05T05:41:24.236Z,222.5
2022-10-05T05:42:24.293Z,238.357
2022-10-05T05:43:24.300Z,255.857
2022-10-05T05:44:24.341Z,275
2022-10-05T05:45:24.373Z,292.5
2022-10-05T05:46:34.173Z,308.357
2022-10-05T05:47:24.520Z,325
2022-10-05T05:48:24.491Z,342.5
2022-10-05T05:49:24.521Z,361.714
2022-10-05T05:50:24.552Z,380.857
2022-10-05T05:51:24.618Z,399.214
2022-10-05T05:52:24.614Z,416.714
2022-10-05T05:53:24.654Z,432.5
2022-10-05T05:54:24.709Z,449.214
2022-10-05T05:55:29.778Z,463.357
2022-10-05T05:56:24.751Z,470.857
2022-10-05T05:57:24.788Z,472.5
2022-10-05T05:58:24.820Z,465.857
2022-10-05T05:59:24.859Z,462.5
2022-10-05T06:00:24.893Z,474.214
2022-10-05T06:01:32.182Z,503.357
2022-10-05T06:02:25.137Z,541.714
2022-10-05T06:03:25.216Z,575.857
2022-10-05T06:04:25.051Z,599.214
2022-10-05T06:05:25.073Z,602.5
2022-10-05T06:06:25.102Z,610
2022-10-05T06:07:30.175Z,630
2022-10-05T06:08:25.172Z,650
2022-10-05T06:09:25.204Z,688.357
2022-10-05T06:10:25.246Z,742.5
2022-10-05T06:11:25.303Z,796.714
2022-10-05T06:12:25.317Z,812.5
2022-10-05T06:13:25.348Z,811.714
2022-10-05T06:14:25.383Z,797.5
2022-10-05T06:15:25.416Z,771.714
2022-10-05T06:16:25.533Z,742.5
2022-10-05T06:17:25.507Z,728.357
2022-10-05T06:18:25.508Z,740
2022-10-05T06:19:25.562Z,766.714
2022-10-05T06:20:25.569Z,800
2022-10-05T06:21:25.608Z,830.857
2022-10-05T06:22:25.642Z,878.357
2022-10-05T06:23:25.698Z,952.5
2022-10-05T06:24:25.712Z,1090
2022-10-05T06:25:25.750Z,1275.86
2022-10-05T06:26:25.789Z,1445.86
2022-10-05T06:27:25.828Z,1542.5
2022-10-05T06:28:25.953Z,1609.21
2022-10-05T06:29:25.892Z,1602.5
2022-10-05T06:30:25.920Z,1567.5
2022-10-05T06:31:26.017Z,1590
2022-10-05T06:32:25.986Z,1600
2022-10-05T06:33:26.032Z,1499.21
2022-10-05T06:34:26.046Z,1326.71
2022-10-05T06:35:26.108Z,1224.21
2022-10-05T06:36:26.117Z,1203.36
2022-10-05T06:37:26.151Z,1234.21
2022-10-05T06:38:26.190Z,1290
2022-10-05T06:39:26.209Z,1333.36
2022-10-05T06:40:26.366Z,1370.86
2022-10-05T06:41:26.288Z,1372.5
2022-10-05T06:42:26.313Z,1389.21
2022-10-05T06:43:26.341Z,1454.21
2022-10-05T06:44:26.382Z,1569.21
2022-10-05T06:45:26.429Z,1636.71
2022-10-05T06:46:26.431Z,1676.71
2022-10-05T06:47:26.459Z,1665
2022-10-05T06:48:26.487Z,1571.71
2022-10-05T06:49:26.542Z,1402.5
2022-10-05T06:50:26.556Z,1211.71
2022-10-05T06:51:26.592Z,1086.71
2022-10-05T06:52:26.626Z,1021.71
2022-10-05T06:53:26.663Z,971.714
2022-10-05T06:54:26.713Z,932.5
2022-10-05T06:55:26.719Z,945
2022-10-05T06:56:26.750Z,998.357
2022-10-05T06:57:26.775Z,1066.71
2022-10-05T06:58:26.809Z,1152.5
2022-10-05T06:59:26.867Z,1242.5
2022-10-05T07:00:26.878Z,1367.5
2022-10-05T07:01:27.007Z,1478.36
2022-10-05T07:02:27.006Z,1464.21
2022-10-05T07:03:27.001Z,1378.36
2022-10-05T07:04:27.011Z,1375.86
2022-10-05T07:05:27.038Z,1400.86
2022-10-05T07:06:27.077Z,1409.21
2022-10-05T07:07:27.129Z,1416.71
2022-10-05T07:08:27.145Z,1478.36
2022-10-05T07:09:27.181Z,1542.5
2022-10-05T07:10:27.234Z,1574.21
2022-10-05T07:11:27.253Z,1550.86
2022-10-05T07:12:27.281Z,1495.86
2022-10-05T07:13:27.320Z,1493.36
2022-10-05T07:14:27.354Z,1534.21
2022-10-05T07:15:27.384Z,1570.86
2022-10-05T07:16:27.523Z,1595
2022-10-05T07:17:27.458Z,1665.86
2022-10-05T07:18:27.485Z,1788.36
2022-10-05T07:19:27.516Z,1874.21
2022-10-05T07:20:27.563Z,1897.5
2022-10-05T07:21:27.595Z,1847.5
2022-10-05T07:22:29.389Z,1787.5
2022-10-05T07:23:27.658Z,1742.5
2022-10-05T07:24:27.700Z,1694.21
2022-10-05T07:25:27.734Z,1778.36
2022-10-05T07:26:27.772Z,1921.71
2022-10-05T07:27:27.823Z,2032.5
2022-10-05T07:28:27.860Z,2152.5
2022-10-05T07:29:27.868Z,2263.36
2022-10-05T07:30:28.077Z,2461.71
2022-10-05T07:31:27.947Z,2625.86
2022-10-05T07:32:27.981Z,2704.21
2022-10-05T07:33:28.019Z,2600
2022-10-05T07:34:28.050Z,2467.5
2022-10-05T07:35:28.087Z,2313.36
2022-10-05T07:36:28.142Z,2180.86
2022-10-05T07:37:28.148Z,2090.86
2022-10-05T07:38:28.180Z,2050.86
2022-10-05T07:39:42.099Z,2082.5
2022-10-05T07:40:28.247Z,2104.21
2022-10-05T07:41:28.266Z,2199.21
2022-10-05T07:42:28.298Z,2355.86
2022-10-05T07:43:40.106Z,2467.5
2022-10-05T07:44:28.391Z,2437.5
2022-10-05T07:45:28.530Z,2523.36
2022-10-05T07:46:28.448Z,2638.36
2022-10-05T07:47:28.485Z,2738.36
2022-10-05T07:48:28.525Z,2758.36
2022-10-05T07:49:28.552Z,2737.5
2022-10-05T07:50:28.592Z,2729.21
2022-10-05T07:51:28.618Z,2740
2022-10-05T07:52:32.304Z,2648.36
2022-10-05T07:53:28.683Z,2554.21
2022-10-05T07:54:28.707Z,2429.21
2022-10-05T07:55:28.751Z,2310.86
2022-10-05T07:56:28.778Z,2200
2022-10-05T07:57:28.815Z,2098.36
2022-10-05T07:58:28.841Z,2141.71
2022-10-05T07:59:28.879Z,2245.86
2022-10-05T08:00:28.906Z,2345
2022-10-05T08:01:28.961Z,2408.36
2022-10-05T08:02:29.118Z,2490.86
2022-10-05T08:03:29.009Z,2636.71
2022-10-05T08:04:29.039Z,2765
2022-10-05T08:05:29.066Z,2810
2022-10-05T08:06:29.097Z,2920.86
2022-10-05T08:07:29.131Z,3070.86
2022-10-05T08:08:29.177Z,3125.86
2022-10-05T08:09:29.196Z,3240
2022-10-05T08:10:29.235Z,3314.21
2022-10-05T08:11:29.272Z,3341.71
2022-10-05T08:12:29.311Z,3358.36
2022-10-05T08:13:29.367Z,3349.21
2022-10-05T08:14:29.370Z,3341.71
2022-10-05T08:15:29.421Z,3263.36
2022-10-05T08:16:29.478Z,3225
2022-10-05T08:17:29.454Z,3150
2022-10-05T08:18:29.481Z,3095
2022-10-05T08:19:29.520Z,3010.86
2022-10-05T08:20:29.576Z,2835.86
2022-10-05T08:21:29.580Z,2737.5
2022-10-05T08:22:29.611Z,2632.5
2022-10-05T08:23:29.642Z,2599.21
2022-10-05T08:24:29.676Z,2492.5
2022-10-05T08:25:29.732Z,2435.86
2022-10-05T08:26:29.740Z,2455
2022-10-05T08:27:29.772Z,2525.86
2022-10-05T08:28:29.988Z,2591.71
2022-10-05T08:29:29.857Z,2665
2022-10-05T08:30:29.887Z,2637.5
2022-10-05T08:31:29.995Z,2632.5
2022-10-05T08:32:29.935Z,2673.36
2022-10-05T08:33:29.966Z,2712.5
2022-10-05T08:34:30.004Z,2677.5
2022-10-05T08:35:30.039Z,2690.86
2022-10-05T08:36:30.065Z,2670
2022-10-05T08:37:30.105Z,2672.5
2022-10-05T08:38:30.132Z,2690.86
2022-10-05T08:39:30.168Z,2686.71
2022-10-05T08:40:30.201Z,2694.21
2022-10-05T08:41:30.263Z,2750
2022-10-05T08:42:30.261Z,2911.71
2022-10-05T08:43:34.430Z,3079.21
2022-10-05T08:44:30.348Z,3145
2022-10-05T08:45:30.379Z,3196.71
2022-10-05T08:46:30.434Z,3211.71
2022-10-05T08:47:30.421Z,3241.71
2022-10-05T08:48:30.447Z,3220.86
2022-10-05T08:49:34.860Z,3185.86
2022-10-05T08:50:30.534Z,3245
2022-10-05T08:51:30.554Z,3326.71
2022-10-05T08:52:30.588Z,3395.86
2022-10-05T08:53:30.620Z,3409.21
2022-10-05T08:54:30.672Z,3390.86
2022-10-05T08:55:30.696Z,3278.36
2022-10-05T08:56:30.728Z,3254.21
2022-10-05T08:57:30.753Z,3170
2022-10-05T08:58:30.786Z,3065
2022-10-05T08:59:30.824Z,2982.5
2022-10-05T09:00:30.870Z,2966.71
2022-10-05T09:01:30.932Z,3000.86
2022-10-05T09:02:30.957Z,3115.86
2022-10-05T09:03:34.218Z,3198.36
2022-10-05T09:04:30.970Z,3263.36
2022-10-05T09:05:31.011Z,3318.36
2022-10-05T09:06:31.045Z,3348.36
2022-10-05T09:07:31.076Z,3339.21
2022-10-05T09:08:31.117Z,3295
2022-10-05T09:09:31.137Z,3200
2022-10-05T09:10:31.178Z,2969.21
2022-10-05T09:11:31.207Z,2775
2022-10-05T09:12:31.248Z,2652.5
2022-10-05T09:13:31.285Z,2600
2022-10-05T09:14:31.314Z,2555
2022-10-05T09:15:31.443Z,2524.21
2022-10-05T09:16:31.394Z,2460
2022-10-05T09:17:34.720Z,2533.36
2022-10-05T09:18:31.465Z,2675.86
2022-10-05T09:19:31.499Z,2806.71
2022-10-05T09:20:31.541Z,2893.36
2022-10-05T09:21:31.577Z,2915
2022-10-05T09:22:31.605Z,2908.36
2022-10-05T09:23:31.637Z,2840.86
2022-10-05T09:24:31.658Z,2765
2022-10-05T09:25:31.718Z,2781.71
2022-10-05T09:26:31.724Z,2841.71
2022-10-05T09:27:31.772Z,2925
2022-10-05T09:28:31.881Z,3008.36
2022-10-05T09:29:31.810Z,3101.71
2022-10-05T09:30:31.867Z,3090.86
2022-10-05T09:31:31.985Z,2978.36
2022-10-05T09:32:31.911Z,2936.71
2022-10-05T09:33:31.953Z,3029.21
2022-10-05T09:34:31.975Z,3172.5
2022-10-05T09:35:32.006Z,3222.5
2022-10-05T09:36:32.038Z,3140
2022-10-05T09:37:32.071Z,2988.36
2022-10-05T09:38:32.100Z,2936.71
2022-10-05T09:39:32.131Z,2893.36
2022-10-05T09:40:32.181Z,2765.86
2022-10-05T09:41:32.220Z,2676.71
2022-10-05T09:42:32.238Z,2606.71
2022-10-05T09:43:32.268Z,2627.5
2022-10-05T09:44:32.301Z,2768.36
2022-10-05T09:45:32.340Z,2970
2022-10-05T09:46:32.442Z,3085
2022-10-05T09:47:32.415Z,3059.21
2022-10-05T09:48:32.484Z,2901.71
2022-10-05T09:49:32.493Z,2675
2022-10-05T09:50:32.531Z,2381.71
2022-10-05T09:51:32.571Z,2107.5
2022-10-05T09:52:32.592Z,1906.71
2022-10-05T09:53:32.733Z,1798.36
2022-10-05T09:54:32.652Z,1799.21
2022-10-05T09:55:32.692Z,1891.71
2022-10-05T09:56:32.732Z,1860
2022-10-05T09:57:32.748Z,1711.71
2022-10-05T09:58:32.809Z,1630
2022-10-05T09:59:32.824Z,1601.71
2022-10-05T10:00:32.851Z,1510
2022-10-05T10:01:34.325Z,1463.36
2022-10-05T10:02:33.092Z,1530
2022-10-05T10:03:32.987Z,1488.36
2022-10-05T10:04:32.975Z,1357.5
2022-10-05T10:05:33.002Z,1270
2022-10-05T10:06:33.065Z,1192.5
2022-10-05T10:07:33.075Z,1120
2022-10-05T10:08:33.101Z,1055.86
2022-10-05T10:09:37.893Z,1115
2022-10-05T10:10:33.162Z,1300
2022-10-05T10:11:33.223Z,1318.36
2022-10-05T10:12:33.227Z,1248.36
2022-10-05T10:13:33.263Z,1170.86
2022-10-05T10:14:33.303Z,1116.71
2022-10-05T10:15:33.420Z,1049.21
2022-10-05T10:16:33.403Z,1060.86
2022-10-05T10:17:33.409Z,1076.71
2022-10-05T10:18:33.443Z,1140.86
2022-10-05T10:19:33.482Z,1134.21
2022-10-05T10:20:33.521Z,1187.5
2022-10-05T10:21:33.569Z,1229.21
2022-10-05T10:22:33.595Z,1350.86
2022-10-05T10:23:33.627Z,1487.5
2022-10-05T10:24:33.661Z,1630.86
2022-10-05T10:25:33.701Z,1699.21
2022-10-05T10:26:33.741Z,1736.71
2022-10-05T10:27:33.775Z,1785.86
2022-10-05T10:28:33.896Z,1924.21
2022-10-05T10:29:33.854Z,2115
2022-10-05T10:30:36.386Z,2370
2022-10-05T10:31:33.921Z,2455
2022-10-05T10:32:33.947Z,2471.71
2022-10-05T10:33:33.981Z,2429.21
2022-10-05T10:34:34.014Z,2380.86
2022-10-05T10:35:34.054Z,2300.86
2022-10-05T10:36:34.088Z,2205.86
2022-10-05T10:37:34.121Z,2157.5
2022-10-05T10:38:34.156Z,1929.21
2022-10-05T10:39:34.181Z,1779.21
2022-10-05T10:40:34.236Z,1691.71
2022-10-05T10:41:34.276Z,1637.5
2022-10-05T10:42:34.280Z,1554.21
2022-10-05T10:43:34.312Z,1366.71
2022-10-05T10:44:34.345Z,1167.5
2022-10-05T10:45:34.379Z,1130.86
2022-10-05T10:46:34.511Z,1014.21
2022-10-05T10:47:34.447Z,1001.71
2022-10-05T10:48:34.478Z,1255
2022-10-05T10:49:34.515Z,1524.21
2022-10-05T10:50:34.549Z,1834.21
2022-10-05T10:51:34.583Z,2095.86
2022-10-05T10:52:34.615Z,2193.36
2022-10-05T10:53:34.676Z,2101.71
2022-10-05T10:54:34.683Z,1861.71
2022-10-05T10:55:34.708Z,1589.21
2022-10-05T10:56:34.743Z,1294.21
2022-10-05T10:57:34.778Z,1090
2022-10-05T10:58:34.823Z,965.857
2022-10-05T10:59:34.848Z,889.214
2022-10-05T11:00:34.879Z,855.857
2022-10-05T11:01:35.034Z,839.214
2022-10-05T11:02:35.034Z,821.714
2022-10-05T11:03:34.981Z,817.5
2022-10-05T11:04:35.021Z,833.357
2022-10-05T11:05:35.048Z,900.857
2022-10-05T11:06:35.083Z,975.857
2022-10-05T11:07:35.124Z,986.714
2022-10-05T11:08:35.157Z,987.5
2022-10-05T11:09:35.193Z,1025
2022-10-05T11:10:35.228Z,1018.36
2022-10-05T11:11:35.272Z,965.857
2022-10-05T11:12:35.299Z,881.714
2022-10-05T11:13:35.341Z,855.857
2022-10-05T11:14:35.374Z,865.857
2022-10-05T11:15:35.444Z,875.857
2022-10-05T11:16:35.441Z,915
2022-10-05T11:17:35.472Z,940
2022-10-05T11:18:35.509Z,929.214
2022-10-05T11:19:46.233Z,935
2022-10-05T11:20:35.575Z,929.214
2022-10-05T11:21:35.606Z,898.357
2022-10-05T11:22:35.639Z,800
2022-10-05T11:23:38.757Z,918.357
2022-10-05T11:24:35.725Z,1008.36
2022-10-05T11:25:35.732Z,1125.86
2022-10-05T11:26:35.767Z,1246.71
2022-10-05T11:27:35.803Z,1255.86
2022-10-05T11:28:35.968Z,1250
2022-10-05T11:29:35.879Z,1216.71
2022-10-05T11:30:35.890Z,1159.21
2022-10-05T11:31:35.999Z,1060
2022-10-05T11:32:35.965Z,938.357
2022-10-05T11:33:35.995Z,866.714
2022-10-05T11:34:36.052Z,897.5
2022-10-05T11:35:36.067Z,1099.21
2022-10-05T11:36:36.096Z,1398.36
2022-10-05T11:37:36.138Z,1666.71
2022-10-05T11:38:36.163Z,1900
2022-10-05T11:39:36.195Z,2115
2022-10-05T11:40:36.229Z,2322.5
2022-10-05T11:41:36.258Z,2520.86
2022-10-05T11:42:36.299Z,2682.5
2022-10-05T11:43:36.341Z,2795.86
2022-10-05T11:44:36.376Z,2893.36
2022-10-05T11:45:36.411Z,2960.86
2022-10-05T11:46:36.509Z,2950
2022-10-05T11:47:36.473Z,2846.71
2022-10-05T11:48:36.513Z,2680.86
2022-10-05T11:49:36.543Z,2565
2022-10-05T11:50:36.578Z,2425.86
2022-10-05T11:51:36.615Z,2275.86
2022-10-05T11:52:36.645Z,2100
2022-10-05T11:53:36.680Z,1859.21
2022-10-05T11:54:58.438Z,1623.36
2022-10-05T11:55:36.777Z,1395.86
2022-10-05T11:56:36.770Z,1252.5
2022-10-05T11:57:36.799Z,1175
2022-10-05T11:58:36.836Z,1135
2022-10-05T11:59:36.880Z,1111.71
2022-10-05T12:00:36.922Z,1090
2022-10-05T12:01:36.936Z,1090
2022-10-05T12:02:39.987Z,1085.86
2022-10-05T12:03:37.283Z,1048.36
2022-10-05T12:04:37.043Z,1009.21
2022-10-05T12:05:37.081Z,971.714
2022-10-05T12:06:37.117Z,939.214
2022-10-05T12:07:37.171Z,920
2022-10-05T12:08:37.187Z,908.357
2022-10-05T12:09:37.225Z,909.214
2022-10-05T12:10:37.262Z,917.5
2022-10-05T12:11:37.327Z,938.357
2022-10-05T12:12:37.328Z,960.857
2022-10-05T12:13:37.369Z,990.857
2022-10-05T12:14:37.401Z,1024.21
2022-10-05T12:15:37.439Z,1028.36
2022-10-05T12:16:37.495Z,1003.36
2022-10-05T12:17:37.509Z,966.714
2022-10-05T12:18:37.538Z,920.857
2022-10-05T12:19:37.556Z,875
2022-10-05T12:20:37.590Z,835.857
2022-10-05T12:21:37.662Z,804.214
2022-10-05T12:22:37.651Z,776.714
2022-10-05T12:23:37.687Z,762.5
2022-10-05T12:24:37.717Z,748.357
2022-10-05T12:25:37.749Z,730
2022-10-05T12:26:37.784Z,708.357
2022-10-05T12:27:37.824Z,690.857
2022-10-05T12:28:37.856Z,676.714
2022-10-05T12:29:37.892Z,671.714
2022-10-05T12:30:37.925Z,665.857
2022-10-05T12:31:38.093Z,661.714
2022-10-05T12:32:38.012Z,662.5
2022-10-05T12:33:38.053Z,660
2022-10-05T12:34:38.076Z,655.857
2022-10-05T12:35:47.479Z,654.214
2022-10-05T12:37:02.520Z,652.5
2022-10-05T12:37:38.201Z,653.357
2022-10-05T12:38:38.213Z,652.5
2022-10-05T12:39:38.253Z,651.714
2022-10-05T12:40:38.275Z,655
2022-10-05T12:41:38.336Z,680.857
2022-10-05T12:42:41.761Z,661.714
2022-10-05T12:43:38.397Z,662.5
2022-10-05T12:44:38.417Z,665
2022-10-05T12:45:38.505Z,665.857
2022-10-05T12:46:38.503Z,661.714
2022-10-05T12:47:38.527Z,670.857
2022-10-05T12:48:38.547Z,680.857
2022-10-05T12:49:38.603Z,658.357
2022-10-05T12:50:38.619Z,664.214
2022-10-05T12:51:38.655Z,655
2022-10-05T12:52:38.688Z,660.857
2022-10-05T12:53:38.722Z,674.214
2022-10-05T12:54:38.805Z,680
2022-10-05T12:55:38.798Z,675
2022-10-05T12:56:38.835Z,658.357
2022-10-05T12:57:38.860Z,653.357
2022-10-05T12:58:38.926Z,655.857
2022-10-05T12:59:38.944Z,655
2022-10-05T13:00:39.028Z,653.357
2022-10-05T13:01:39.121Z,650
2022-10-05T13:02:39.040Z,646.714
2022-10-05T13:03:39.063Z,645.857
2022-10-05T13:04:39.104Z,640.857
2022-10-05T13:05:39.141Z,636.714
2022-10-05T13:06:39.167Z,635.857
2022-10-05T13:07:39.200Z,635.857
2022-10-05T13:08:39.240Z,633.357
2022-10-05T13:09:39.269Z,635.857
2022-10-05T13:10:39.307Z,635.857
2022-10-05T13:11:39.344Z,635.857
2022-10-05T13:12:39.380Z,634.214
2022-10-05T13:13:39.418Z,632.5
2022-10-05T13:14:39.454Z,631.714
2022-10-05T13:15:39.534Z,628.357
2022-10-05T13:16:39.541Z,625
2022-10-05T13:17:39.572Z,624.214
2022-10-05T13:18:39.581Z,623.357
2022-10-05T13:19:39.621Z,620.857
2022-10-05T13:20:39.648Z,618.357
2022-10-05T13:21:40.857Z,615.857
2022-10-05T13:22:39.723Z,615
2022-10-05T13:23:39.739Z,613.357
2022-10-05T13:24:39.768Z,611.714
2022-10-05T13:25:39.802Z,609.214
2022-10-05T13:26:39.861Z,605
2022-10-05T13:27:39.864Z,602.5
2022-10-05T13:28:39.920Z,601.714
2022-10-05T13:29:39.932Z,598.357
2022-10-05T13:30:39.965Z,599.214
2022-10-05T13:31:40.101Z,599.214
2022-10-05T13:32:40.033Z,595.857
2022-10-05T13:33:40.056Z,595.857
2022-10-05T13:34:40.092Z,596.714
2022-10-05T13:35:40.131Z,595.857
2022-10-05T13:36:40.179Z,593.357
2022-10-05T13:37:40.190Z,591.714
2022-10-05T13:38:40.235Z,591.714
2022-10-05T13:39:40.264Z,590.857
2022-10-05T13:40:40.313Z,588.357
2022-10-05T13:41:40.341Z,584.214
2022-10-05T13:42:40.376Z,582.5
2022-10-05T13:43:40.423Z,581.714
2022-10-05T13:44:40.449Z,581.714
2022-10-05T13:45:40.520Z,581.714
2022-10-05T13:46:40.517Z,580.857
2022-10-05T13:47:40.548Z,579.214
2022-10-05T13:48:40.595Z,580.857
2022-10-05T13:49:40.653Z,580
2022-10-05T13:50:40.644Z,578.357
2022-10-05T13:51:40.686Z,575.857
2022-10-05T13:52:40.698Z,572.5
2022-10-05T13:53:40.727Z,570
2022-10-05T13:54:40.762Z,570
2022-10-05T13:55:40.793Z,569.214
2022-10-05T13:56:40.832Z,568.357
2022-10-05T13:57:40.862Z,566.714
2022-10-05T13:58:40.901Z,565.857
2022-10-05T13:59:40.932Z,564.214
2022-10-05T14:00:40.965Z,562.5
2022-10-05T14:01:40.994Z,561.714
2022-10-05T14:02:41.033Z,560
2022-10-05T14:03:41.060Z,556.714
2022-10-05T14:04:41.095Z,555
2022-10-05T14:05:41.127Z,553.357
2022-10-05T14:06:41.165Z,550
2022-10-05T14:07:41.197Z,553.357
2022-10-05T14:08:41.223Z,580.857
2022-10-05T14:09:41.258Z,608.357
2022-10-05T14:10:41.293Z,630
2022-10-05T14:11:41.329Z,648.357
2022-10-05T14:12:41.361Z,658.357
2022-10-05T14:13:41.392Z,660
2022-10-05T14:14:41.421Z,656.714
2022-10-05T14:15:42.335Z,659.214
2022-10-05T14:16:41.545Z,660
2022-10-05T14:17:41.523Z,673.357
2022-10-05T14:18:41.554Z,684.214
2022-10-05T14:19:41.582Z,598.357
2022-10-05T14:20:41.619Z,640
2022-10-05T14:21:41.667Z,633.357
2022-10-05T14:22:41.692Z,596.714
2022-10-05T14:23:41.726Z,560.857
2022-10-05T14:24:44.542Z,563.357
2022-10-05T14:25:41.788Z,553.357
2022-10-05T14:26:41.824Z,546.714
2022-10-05T14:27:41.857Z,540.857
2022-10-05T14:28:41.933Z,534.214
2022-10-05T14:29:41.934Z,528.357
2022-10-05T14:30:41.972Z,525
2022-10-05T14:31:42.107Z,521.714
2022-10-05T14:32:42.038Z,517.5
2022-10-05T14:33:42.069Z,515.857
2022-10-05T14:34:42.105Z,513.357
2022-10-05T14:35:42.128Z,510
2022-10-05T14:36:42.170Z,506.714
2022-10-05T14:37:42.201Z,504.214
2022-10-05T14:38:42.262Z,501.714
2022-10-05T14:39:42.296Z,500
2022-10-05T14:40:42.307Z,496.714
2022-10-05T14:41:42.441Z,493.357
2022-10-05T14:42:46.950Z,491.714
2022-10-05T14:43:42.414Z,488.357
2022-10-05T14:44:42.467Z,485.857
2022-10-05T14:45:42.484Z,484.214
2022-10-05T14:46:42.509Z,483.357
2022-10-05T14:47:42.546Z,480.857
2022-10-05T14:48:42.581Z,477.5
2022-10-05T14:49:42.642Z,475
2022-10-05T14:50:42.648Z,473.357
2022-10-05T14:51:42.679Z,471.714
2022-10-05T14:52:42.712Z,470
2022-10-05T14:53:42.756Z,468.357
2022-10-05T14:54:42.810Z,465.857
2022-10-05T14:55:42.821Z,464.214
2022-10-05T14:56:42.853Z,463.357
2022-10-05T14:57:42.890Z,461.714
2022-10-05T14:58:42.924Z,463.357
2022-10-05T14:59:42.969Z,462.5
2022-10-05T15:00:46.856Z,460.857
2022-10-05T15:01:43.092Z,459.214
2022-10-05T15:02:43.098Z,458.357
2022-10-05T15:03:43.079Z,455
2022-10-05T15:04:43.125Z,453.357
2022-10-05T15:05:43.163Z,450.857
2022-10-05T15:06:43.193Z,449.214
2022-10-05T15:07:43.225Z,446.714
2022-10-05T15:08:43.262Z,443.357
2022-10-05T15:09:43.293Z,440.857
2022-10-05T15:10:43.340Z,438.357
2022-10-05T15:11:43.353Z,435.857
2022-10-05T15:12:43.397Z,433.357
2022-10-05T15:13:43.414Z,430
2022-10-05T15:14:43.476Z,428.357
2022-10-05T15:15:43.494Z,426.714
2022-10-05T15:16:43.623Z,424.214
2022-10-05T15:17:43.560Z,421.714
2022-10-05T15:18:43.599Z,420
2022-10-05T15:19:43.661Z,417.5
2022-10-05T15:20:43.685Z,415
2022-10-05T15:21:43.722Z,411.714
2022-10-05T15:22:43.758Z,409.214
2022-10-05T15:23:43.814Z,406.714
2022-10-05T15:24:43.958Z,403.357
2022-10-05T15:25:43.873Z,400
2022-10-05T15:26:43.885Z,396.714
2022-10-05T15:27:43.918Z,395
2022-10-05T15:28:43.974Z,392.5
2022-10-05T15:29:47.351Z,390
2022-10-05T15:30:44.065Z,387.5
2022-10-05T15:31:44.065Z,385
2022-10-05T15:32:44.127Z,382.5
2022-10-05T15:33:44.136Z,379.214
2022-10-05T15:34:44.165Z,375.857
2022-10-05T15:35:44.204Z,374.214
2022-10-05T15:36:44.239Z,370.857
2022-10-05T15:37:44.291Z,367.5
2022-10-05T15:38:44.308Z,364.214
2022-10-05T15:39:44.343Z,360.857
2022-10-05T15:40:44.375Z,358.357
2022-10-05T15:41:44.408Z,355
2022-10-05T15:42:44.439Z,351.714
2022-10-05T15:43:44.476Z,348.357
2022-10-05T15:44:44.506Z,344.214
2022-10-05T15:45:44.605Z,340
2022-10-05T15:46:44.570Z,335.857
2022-10-05T15:47:44.616Z,331.714
2022-10-05T15:48:44.654Z,326.714
2022-10-05T15:49:44.684Z,322.5
2022-10-05T15:50:44.743Z,318.357
2022-10-05T15:51:44.754Z,314.214
2022-10-05T15:52:44.787Z,310
2022-10-05T15:53:44.821Z,305
2022-10-05T15:54:44.857Z,300.857
2022-10-05T15:55:44.912Z,296.714
2022-10-05T15:56:44.922Z,291.714
2022-10-05T15:57:44.982Z,286.714
2022-10-05T15:58:44.992Z,281.714
2022-10-05T15:59:45.024Z,276.714
2022-10-05T16:00:45.057Z,271.714
2022-10-05T16:01:45.191Z,266.714
2022-10-05T16:02:45.178Z,261.714
2022-10-05T16:03:45.164Z,255.857
2022-10-05T16:04:45.200Z,250
2022-10-05T16:05:45.222Z,244.214
2022-10-05T16:06:45.281Z,239.214
2022-10-05T16:07:45.289Z,233.357
2022-10-05T16:08:45.321Z,227.5
2022-10-05T16:09:45.363Z,221.714
2022-10-05T16:10:45.401Z,215.857
2022-10-05T16:11:45.430Z,209.214
2022-10-05T16:12:45.460Z,202.5
2022-10-05T16:13:45.500Z,195.857
2022-10-05T16:14:45.536Z,190
2022-10-05T16:15:45.576Z,183.357
2022-10-05T16:16:45.722Z,176.714
2022-10-05T16:17:45.635Z,170
2022-10-05T16:18:45.674Z,163.357
2022-10-05T16:19:45.712Z,155.857
2022-10-05T16:20:45.741Z,149.214
2022-10-05T16:21:45.783Z,142.5
2022-10-05T16:22:45.813Z,135
2022-10-05T16:23:45.870Z,128.357
2022-10-05T16:24:45.879Z,121.714
2022-10-05T16:25:45.914Z,115
2022-10-05T16:26:45.950Z,109.214
2022-10-05T16:27:45.983Z,101.714
2022-10-05T16:28:46.072Z,95.8571
2022-10-05T16:29:46.076Z,89.2143
2022-10-05T16:30:46.137Z,83.3571
2022-10-05T16:31:46.219Z,77.5
2022-10-05T16:32:46.162Z,71.7143
2022-10-05T16:33:46.991Z,65.8571
2022-10-05T16:34:46.251Z,60.8571
2022-10-05T16:35:46.294Z,55.8571
2022-10-05T16:36:46.321Z,50
2022-10-05T16:37:46.339Z,45.8571
2022-10-05T16:38:46.370Z,41.7143
2022-10-05T16:39:46.403Z,37.5
2022-10-05T16:40:46.460Z,33.3571
2022-10-05T16:41:46.474Z,30
2022-10-05T16:42:46.508Z,26.7143
2022-10-05T16:43:46.547Z,23.3571
2022-10-05T16:44:46.581Z,20
2022-10-05T16:45:46.644Z,17.5
2022-10-05T16:46:46.681Z,15
2022-10-05T16:47:46.688Z,13.3571
2022-10-05T16:48:46.720Z,11.7143
2022-10-05T16:49:46.758Z,10
2022-10-05T16:50:46.793Z,8.35714
2022-10-05T16:51:46.947Z,6.71429
2022-10-05T16:52:46.872Z,5.85714
2022-10-05T16:53:46.909Z,4.21429
2022-10-05T16:54:48.110Z,3.35714
2022-10-05T16:55:46.980Z,2.5
2022-10-05T16:56:47.023Z,2.5
2022-10-05T16:57:47.059Z,1.71429
2022-10-05T16:58:47.091Z,0.857143
2022-10-05T16:59:47.127Z,0.857143
2022-10-05T17:00:47.166Z,0.857143
